Time;durP1;ratioP1;P1;durP2;ratioP2;P2;SDS_P1;SDS_P2;PMS_P1;PMS_P2;Temp;Humidity;BMP_temperature;BMP_pressure;BME280_temperature;BME280_humidity;BME280_pressure;Samples;Min_cycle;Max_cycle;Signal;HPM_P1;HPM_P2
2023/09/22 00:01:21;;;;;;;0.00;0.00;;;;;;;12.56;100.00;99809.78;5109082;28;20052;-44
2023/09/22 00:03:47;;;;;;;0.00;0.00;;;;;;;12.58;100.00;99810.38;5112281;27;20085;-46
2023/09/22 00:06:13;;;;;;;0.00;0.00;;;;;;;12.54;100.00;99809.19;5102585;28;20032;-45
2023/09/22 00:08:39;;;;;;;0.00;0.00;;;;;;;12.51;100.00;99805.88;5093999;28;20028;-46
2023/09/22 00:11:07;;;;;;;0.00;0.00;;;;;;;12.55;100.00;99808.94;5101246;28;20081;-46
2023/09/22 00:13:33;;;;;;;0.00;0.00;;;;;;;12.49;100.00;99804.44;5096489;28;20111;-46
2023/09/22 00:15:58;;;;;;;0.00;0.00;;;;;;;12.50;100.00;99801.50;5093586;28;20115;-43
2023/09/22 00:18:24;;;;;;;0.00;0.00;;;;;;;12.49;100.00;99805.25;5111795;28;20028;-44
2023/09/22 00:20:49;;;;;;;0.00;0.00;;;;;;;12.49;100.00;99799.03;5099607;28;20468;-44
2023/09/22 00:23:15;;;;;;;0.00;0.00;;;;;;;12.52;100.00;99810.22;5108128;28;20097;-44
2023/09/22 00:25:40;;;;;;;0.00;0.00;;;;;;;12.55;100.00;99817.03;5100594;28;20024;-45
2023/09/22 00:28:07;;;;;;;0.00;0.00;;;;;;;12.52;100.00;99823.72;5112819;28;20107;-46
2023/09/22 00:30:32;;;;;;;0.00;0.00;;;;;;;12.50;100.00;99833.06;5111965;28;20028;-43
2023/09/22 00:32:58;;;;;;;0.00;0.00;;;;;;;12.45;100.00;99831.06;5094252;28;20032;-43
2023/09/22 00:35:23;;;;;;;0.00;0.00;;;;;;;12.48;100.00;99819.81;5095533;28;20127;-45
2023/09/22 00:37:50;;;;;;;0.00;0.00;;;;;;;12.53;100.00;99819.13;5093009;28;20084;-46
2023/09/22 00:40:15;;;;;;;0.00;0.00;;;;;;;12.57;100.00;99822.25;5111435;28;20055;-46
2023/09/22 00:42:41;;;;;;;0.00;0.00;;;;;;;12.45;100.00;99819.41;5097290;28;20075;-43
2023/09/22 00:45:07;;;;;;;0.00;0.00;;;;;;;12.51;100.00;99818.56;5091998;28;20024;-43
2023/09/22 00:47:33;;;;;;;0.00;0.00;;;;;;;12.46;100.00;99823.78;5092715;28;20078;-46
2023/09/22 00:49:58;;;;;;;0.00;0.00;;;;;;;12.44;100.00;99829.38;5094375;28;20060;-46
2023/09/22 00:52:25;;;;;;;0.00;0.00;;;;;;;12.48;100.00;99825.22;5103723;28;20481;-45
2023/09/22 00:54:50;;;;;;;0.00;0.00;;;;;;;12.47;100.00;99828.13;5113598;28;20038;-45
2023/09/22 00:57:16;;;;;;;0.00;0.00;;;;;;;12.48;100.00;99837.84;5097279;28;20493;-47
2023/09/22 00:59:42;;;;;;;0.00;0.00;;;;;;;12.50;100.00;99838.47;5102354;28;20122;-43
2023/09/22 01:02:09;;;;;;;0.00;0.00;;;;;;;12.57;100.00;99828.47;5111760;28;20164;-44
2023/09/22 01:04:35;;;;;;;0.00;0.00;;;;;;;12.54;100.00;99833.47;5111829;28;20132;-46
2023/09/22 01:07:01;;;;;;;0.00;0.00;;;;;;;12.56;100.00;99836.75;5110726;28;20115;-46
2023/09/22 01:09:26;;;;;;;0.00;0.00;;;;;;;12.45;100.00;99814.88;5097289;28;20455;-44
2023/09/22 01:11:51;;;;;;;0.00;0.00;;;;;;;12.58;100.00;99821.19;5107397;28;20038;-46
2023/09/22 01:14:17;;;;;;;0.00;0.00;;;;;;;12.48;100.00;99814.41;5097830;28;20127;-45
2023/09/22 01:16:42;;;;;;;0.00;0.00;;;;;;;12.46;100.00;99803.00;5092689;28;20130;-45
2023/09/22 01:19:17;;;;;;;0.00;0.00;;;;;;;12.47;100.00;99812.75;5090744;28;20074;-44
2023/09/22 01:21:43;;;;;;;0.00;0.00;;;;;;;12.49;100.00;99809.84;5097328;28;20024;-47
2023/09/22 01:24:12;;;;;;;0.00;0.00;;;;;;;12.59;100.00;99817.44;5101705;28;20140;-45
2023/09/22 01:26:38;;;;;;;0.00;0.00;;;;;;;12.50;100.00;99806.91;5111812;28;20089;-45
2023/09/22 01:29:04;;;;;;;0.00;0.00;;;;;;;12.55;100.00;99803.56;5112912;28;20489;-43
2023/09/22 01:31:29;;;;;;;0.00;0.00;;;;;;;12.62;100.00;99793.53;5111748;28;20043;-45
2023/09/22 01:33:55;;;;;;;0.00;0.00;;;;;;;12.71;100.00;99797.59;5099608;28;20023;-44
2023/09/22 01:36:20;;;;;;;0.00;0.00;;;;;;;12.64;100.00;99799.53;5112803;28;20034;-45
2023/09/22 01:38:46;;;;;;;0.00;0.00;;;;;;;12.59;100.00;99787.75;5112570;27;20020;-45
2023/09/22 01:41:11;;;;;;;0.00;0.00;;;;;;;12.68;100.00;99784.53;5093882;28;20532;-43
2023/09/22 01:43:38;;;;;;;0.00;0.00;;;;;;;12.62;100.00;99781.91;5092184;28;20024;-45
2023/09/22 01:46:04;;;;;;;0.00;0.00;;;;;;;12.64;100.00;99775.25;5090227;28;20032;-44
2023/09/22 01:48:29;;;;;;;0.00;0.00;;;;;;;12.63;100.00;99778.16;5101349;28;20085;-45
2023/09/22 01:51:00;;;;;;;0.00;0.00;;;;;;;12.59;100.00;99776.97;5111551;28;20028;-46
2023/09/22 01:53:25;;;;;;;0.00;0.00;;;;;;;12.55;100.00;99775.75;5112098;28;20118;-46
2023/09/22 01:55:51;;;;;;;0.00;0.00;;;;;;;12.63;100.00;99778.16;5111523;28;20110;-44
2023/09/22 01:58:16;;;;;;;0.00;0.00;;;;;;;12.61;100.00;99780.25;5091788;28;20056;-43
2023/09/22 02:00:41;;;;;;;0.00;0.00;;;;;;;12.63;100.00;99784.38;5091342;28;20093;-42
2023/09/22 02:03:07;;;;;;;0.00;0.00;;;;;;;12.63;100.00;99780.84;5095169;28;20525;-45
2023/09/22 02:05:34;;;;;;;0.00;0.00;;;;;;;12.61;100.00;99772.16;5105960;27;20028;-44
2023/09/22 02:07:59;;;;;;;0.00;0.00;;;;;;;12.63;100.00;99761.97;5092075;28;20034;-46
2023/09/22 02:10:25;;;;;;;0.00;0.00;;;;;;;12.62;100.00;99760.31;5091236;28;20107;-45
2023/09/22 02:12:50;;;;;;;0.00;0.00;;;;;;;12.54;100.00;99764.13;5091689;28;20454;-44
2023/09/22 02:15:16;;;;;;;0.00;0.00;;;;;;;12.57;100.00;99766.38;5105985;28;20039;-45
2023/09/22 02:17:43;;;;;;;0.00;0.00;;;;;;;12.56;100.00;99762.03;5096040;28;20118;-44
2023/09/22 02:20:22;;;;;;;0.00;0.00;;;;;;;12.59;100.00;99763.47;5110725;28;20064;-45
2023/09/22 02:22:53;;;;;;;0.00;0.00;;;;;;;12.61;100.00;99754.09;5111447;28;20038;-46
2023/09/22 02:25:19;;;;;;;0.00;0.00;;;;;;;12.61;100.00;99761.34;5106629;28;20106;-45
2023/09/22 02:27:45;;;;;;;0.00;0.00;;;;;;;12.66;100.00;99766.91;5091244;28;20524;-45
2023/09/22 02:30:11;;;;;;;0.00;0.00;;;;;;;12.63;100.00;99765.47;5090548;28;20036;-46
2023/09/22 02:32:38;;;;;;;0.00;0.00;;;;;;;12.62;100.00;99754.94;5102685;28;20477;-46
2023/09/22 02:35:04;;;;;;;0.00;0.00;;;;;;;12.59;100.00;99760.78;5107944;27;20039;-44
2023/09/22 02:37:30;;;;;;;0.00;0.00;;;;;;;12.59;100.00;99763.47;5101758;28;20027;-43
2023/09/22 02:39:55;;;;;;;0.00;0.00;;;;;;;12.58;100.00;99765.31;5111428;28;20026;-45
2023/09/22 02:42:21;;;;;;;0.00;0.00;;;;;;;12.58;100.00;99767.19;5108931;28;20027;-43
2023/09/22 02:44:46;;;;;;;0.00;0.00;;;;;;;12.59;100.00;99758.06;5111246;28;20020;-44
2023/09/22 02:47:12;;;;;;;0.00;0.00;;;;;;;12.59;100.00;99763.47;5098433;27;20085;-44
2023/09/22 02:49:37;;;;;;;0.00;0.00;;;;;;;12.62;100.00;99760.31;5090539;28;20032;-44
2023/09/22 02:52:03;;;;;;;0.00;0.00;;;;;;;12.63;100.00;99767.38;5090698;28;20055;-46
2023/09/22 02:54:28;;;;;;;0.00;0.00;;;;;;;12.65;100.00;99762.56;5090656;28;20028;-43
2023/09/22 02:56:54;;;;;;;0.00;0.00;;;;;;;12.72;100.00;99760.66;5090663;28;20467;-42
2023/09/22 02:59:19;;;;;;;0.00;0.00;;;;;;;12.74;100.00;99769.31;5090800;28;20060;-43
2023/09/22 03:01:45;;;;;;;0.00;0.00;;;;;;;12.72;100.00;99766.03;5090425;28;20024;-45
2023/09/22 03:04:10;;;;;;;0.00;0.00;;;;;;;12.73;100.00;99765.81;5091688;28;20024;-45
2023/09/22 03:06:39;;;;;;;0.00;0.00;;;;;;;12.76;100.00;99759.13;5098993;28;20119;-46
2023/09/22 03:09:06;;;;;;;0.00;0.00;;;;;;;12.72;100.00;99760.66;5090392;28;20028;-46
2023/09/22 03:11:32;;;;;;;0.00;0.00;;;;;;;12.76;100.00;99758.31;5089995;28;20028;-47
2023/09/22 03:13:58;;;;;;;0.00;0.00;;;;;;;12.78;100.00;99757.03;5090595;28;20105;-45
2023/09/22 03:16:24;;;;;;;0.00;0.00;;;;;;;12.72;100.00;99757.94;5090384;28;20046;-44
2023/09/22 03:18:49;;;;;;;0.00;0.00;;;;;;;12.77;100.00;99751.84;5106422;28;20100;-45
2023/09/22 03:21:15;;;;;;;0.00;0.00;;;;;;;12.76;100.00;99753.72;5106456;28;20044;-44
2023/09/22 03:23:41;;;;;;;0.00;0.00;;;;;;;12.76;100.00;99756.44;5090477;28;20061;-45
2023/09/22 03:26:06;;;;;;;0.00;0.00;;;;;;;12.71;100.00;99758.97;5090677;28;20086;-45
2023/09/22 03:28:31;;;;;;;0.00;0.00;;;;;;;12.74;100.00;99758.53;5090536;28;20542;-46
2023/09/22 03:30:58;;;;;;;0.00;0.00;;;;;;;12.81;100.00;99751.19;5090382;28;20016;-47
2023/09/22 03:33:23;;;;;;;0.00;0.00;;;;;;;12.78;100.00;99753.53;5089770;28;20026;-46
2023/09/22 03:35:50;;;;;;;0.00;0.00;;;;;;;12.79;100.00;99755.16;5089910;28;20454;-46
2023/09/22 03:38:15;;;;;;;0.00;0.00;;;;;;;12.85;100.00;99759.66;5090792;28;20462;-42
2023/09/22 03:40:41;;;;;;;0.00;0.00;;;;;;;12.84;100.00;99752.63;5090099;28;20030;-45
2023/09/22 03:43:07;;;;;;;0.00;0.00;;;;;;;12.85;100.00;99749.72;5090135;28;20024;-46
2023/09/22 03:45:32;;;;;;;0.00;0.00;;;;;;;12.86;100.00;99756.75;5089969;28;20028;-44
2023/09/22 03:47:58;;;;;;;0.00;0.00;;;;;;;12.87;100.00;99749.47;5097818;28;20458;-44
2023/09/22 03:50:23;;;;;;;0.00;0.00;;;;;;;12.95;100.00;99749.16;5095411;28;20032;-46
2023/09/22 03:52:49;;;;;;;0.00;0.00;;;;;;;12.98;100.00;99747.91;5106833;28;20016;-44
2023/09/22 03:55:15;;;;;;;0.00;0.00;;;;;;;12.98;100.00;99743.34;5101670;28;20153;-42
2023/09/22 03:57:41;;;;;;;0.00;0.00;;;;;;;13.04;100.00;99747.03;5100248;28;20055;-45
2023/09/22 04:00:17;;;;;;;0.00;0.00;;;;;;;12.99;100.00;99744.16;5089248;28;20083;-44
2023/09/22 04:02:43;;;;;;;0.00;0.00;;;;;;;12.96;100.00;99746.25;5092001;28;20028;-44
2023/09/22 04:05:08;;;;;;;0.00;0.00;;;;;;;12.96;100.00;99740.84;5098474;28;20019;-42
2023/09/22 04:07:35;;;;;;;0.00;0.00;;;;;;;12.98;100.00;99743.34;5095155;28;20036;-44
2023/09/22 04:10:01;;;;;;;0.00;0.00;;;;;;;13.00;100.00;99735.81;5089642;28;20035;-47
2023/09/22 04:12:27;;;;;;;0.00;0.00;;;;;;;13.01;100.00;99737.50;5091960;28;20016;-47
2023/09/22 04:14:52;;;;;;;0.00;0.00;;;;;;;13.00;100.00;99743.09;5089932;28;20092;-45
2023/09/22 04:17:18;;;;;;;0.00;0.00;;;;;;;12.99;100.00;99744.16;5092059;28;20059;-44
2023/09/22 04:19:43;;;;;;;0.00;0.00;;;;;;;12.89;100.00;99753.59;5089068;28;20067;-44
2023/09/22 04:22:11;;;;;;;0.00;0.00;;;;;;;12.86;100.00;99745.13;5098943;28;20024;-44
2023/09/22 04:24:37;;;;;;;0.00;0.00;;;;;;;12.88;100.00;99748.44;5108122;28;20028;-45
2023/09/22 04:27:07;;;;;;;0.00;0.00;;;;;;;12.92;100.00;99750.44;5091429;28;20077;-45
2023/09/22 04:29:35;;;;;;;0.00;0.00;;;;;;;12.86;100.00;99761.34;5093142;28;20020;-46
2023/09/22 04:32:02;;;;;;;0.00;0.00;;;;;;;12.95;100.00;99751.88;5103689;28;20028;-46
2023/09/22 04:34:28;;;;;;;0.00;0.00;;;;;;;12.93;100.00;99754.81;5091792;28;20044;-44
2023/09/22 04:36:53;;;;;;;0.00;0.00;;;;;;;12.94;100.00;99751.06;5103558;28;20077;-44
2023/09/22 04:39:21;;;;;;;0.00;0.00;;;;;;;12.93;100.00;99752.13;5112472;28;20334;-46
2023/09/22 04:41:46;;;;;;;;;;;;;;;13.02;100.00;99749.13;5098877;28;20036;-45
2023/09/22 04:44:12;;;;;;;0.00;0.00;;;;;;;13.06;100.00;99753.00;5089716;28;19912;-44
2023/09/22 04:46:37;;;;;;;0.00;0.00;;;;;;;13.00;100.00;99756.59;5097792;28;20124;-44
2023/09/22 04:49:02;;;;;;;0.00;0.00;;;;;;;12.99;100.00;99760.38;5096806;28;20374;-45
2023/09/22 04:51:28;;;;;;;0.00;0.00;;;;;;;13.02;100.00;99759.91;5089026;28;20466;-44
2023/09/22 04:53:54;;;;;;;0.00;0.00;;;;;;;13.15;100.00;99765.16;5091478;28;20097;-45
2023/09/22 04:56:21;;;;;;;0.00;0.00;;;;;;;13.12;100.00;99757.53;5097467;28;20481;-44
2023/09/22 04:58:47;;;;;;;0.00;0.00;;;;;;;13.16;100.00;99754.16;5098923;28;20028;-43
2023/09/22 05:01:14;;;;;;;0.00;0.00;;;;;;;13.13;100.00;99748.34;5096372;27;20422;-47
2023/09/22 05:03:39;;;;;;;0.00;0.00;;;;;;;13.15;100.00;99749.78;5089808;28;20040;-43
2023/09/22 05:06:06;;;;;;;0.00;0.00;;;;;;;13.14;100.00;99753.56;5108437;28;20024;-44
2023/09/22 05:08:32;;;;;;;0.00;0.00;;;;;;;13.15;100.00;99749.78;5096888;28;20150;-47
2023/09/22 05:10:59;;;;;;;0.00;0.00;;;;;;;13.20;100.00;99751.00;5098684;28;20039;-46
2023/09/22 05:13:24;;;;;;;0.00;0.00;;;;;;;13.15;100.00;99748.97;5096161;28;20024;-42
2023/09/22 05:15:49;;;;;;;0.00;0.00;;;;;;;13.05;100.00;99756.75;5100486;28;20023;-45
2023/09/22 05:18:15;;;;;;;0.00;0.00;;;;;;;13.04;100.00;99753.25;5105305;28;20114;-44
2023/09/22 05:20:40;;;;;;;0.00;0.00;;;;;;;13.07;100.00;99758.19;5109363;28;20453;-45
2023/09/22 05:23:07;;;;;;;0.00;0.00;;;;;;;12.99;100.00;99760.38;5105302;28;20669;-42
2023/09/22 05:25:33;;;;;;;0.00;0.00;;;;;;;13.01;100.00;99761.81;5092443;28;20427;-46
2023/09/22 05:27:58;;;;;;;0.00;0.00;;;;;;;12.93;100.00;99765.63;5091063;28;20025;-42
2023/09/22 05:30:24;;;;;;;0.00;0.00;;;;;;;12.89;100.00;99771.69;5100542;28;20058;-46
2023/09/22 05:32:49;;;;;;;0.00;0.00;;;;;;;12.88;100.00;99770.88;5112185;28;20023;-45
2023/09/22 05:35:15;;;;;;;0.00;0.00;;;;;;;12.91;100.00;99765.00;5093425;28;20035;-44
2023/09/22 05:37:41;;;;;;;0.00;0.00;;;;;;;12.94;100.00;99766.44;5104393;28;20397;-44
2023/09/22 05:40:12;;;;;;;0.00;0.00;;;;;;;13.00;100.00;99767.41;5106531;28;20023;-41
2023/09/22 05:42:38;;;;;;;0.00;0.00;;;;;;;12.92;100.00;99772.06;5091572;28;20470;-45
2023/09/22 05:45:04;;;;;;;0.00;0.00;;;;;;;12.98;100.00;99772.22;5105854;28;20172;-47
2023/09/22 05:47:30;;;;;;;0.00;0.00;;;;;;;12.94;100.00;99769.97;5111883;28;20019;-44
2023/09/22 05:49:55;;;;;;;0.00;0.00;;;;;;;12.86;100.00;99777.53;5098054;28;20023;-45
2023/09/22 05:52:21;;;;;;;0.00;0.00;;;;;;;12.88;100.00;99780.84;5093634;28;20024;-44
2023/09/22 05:54:47;;;;;;;0.00;0.00;;;;;;;12.90;100.00;99776.88;5110752;28;20426;-44
2023/09/22 05:57:13;;;;;;;0.00;0.00;;;;;;;12.98;100.00;99773.06;5105084;28;20028;-44
2023/09/22 05:59:38;;;;;;;0.00;0.00;;;;;;;12.91;100.00;99775.81;5097504;28;20044;-47
2023/09/22 06:02:05;;;;;;;0.00;0.00;;;;;;;12.91;100.00;99781.22;5111287;28;20030;-45
2023/09/22 06:04:32;;;;;;;0.00;0.00;;;;;;;12.93;100.00;99772.91;5102908;28;20024;-45
2023/09/22 06:06:58;;;;;;;0.00;0.00;;;;;;;12.85;100.00;99782.13;5109211;28;20106;-45
2023/09/22 06:09:25;;;;;;;0.00;0.00;;;;;;;12.90;100.00;99773.31;5095688;28;20090;-45
2023/09/22 06:11:50;;;;;;;0.00;0.00;;;;;;;12.87;100.00;99788.09;5092093;28;20036;-45
2023/09/22 06:14:16;;;;;;;0.00;0.00;;;;;;;12.88;100.00;99787.06;5101545;28;20067;-45
2023/09/22 06:16:41;;;;;;;0.00;0.00;;;;;;;12.87;100.00;99782.69;5095252;28;20028;-46
2023/09/22 06:19:10;;;;;;;0.00;0.00;;;;;;;12.85;100.00;99782.13;5106096;28;20077;-48
2023/09/22 06:21:36;;;;;;;0.00;0.00;;;;;;;12.87;100.00;99785.41;5103144;28;20054;-45
2023/09/22 06:24:01;;;;;;;0.00;0.00;;;;;;;12.89;100.00;99777.91;5091452;28;20451;-43
2023/09/22 06:26:27;;;;;;;0.05;0.00;;;;;;;12.90;100.00;99795.78;5091197;28;20039;-44
2023/09/22 06:28:52;;;;;;;0.00;0.00;;;;;;;12.88;100.00;99781.66;5091313;28;20115;-43
2023/09/22 06:31:18;;;;;;;0.00;0.00;;;;;;;12.88;100.00;99791.66;5092726;28;20024;-45
2023/09/22 06:33:44;;;;;;;0.00;0.00;;;;;;;12.90;100.00;99793.06;5091409;28;20459;-44
2023/09/22 06:36:09;;;;;;;0.00;0.00;;;;;;;12.84;100.00;99788.53;5091548;28;20055;-44
2023/09/22 06:38:34;;;;;;;0.00;0.00;;;;;;;12.95;100.00;99800.47;5094469;28;20069;-43
2023/09/22 06:41:01;;;;;;;0.00;0.00;;;;;;;12.98;100.00;99789.25;5100073;28;20028;-42
2023/09/22 06:43:26;;;;;;;0.00;0.00;;;;;;;13.08;100.00;99794.13;5093982;28;20482;-45
2023/09/22 06:45:52;;;;;;;0.00;0.00;;;;;;;13.11;100.00;99793.69;5092065;28;20032;-45
2023/09/22 06:48:27;;;;;;;0.00;0.00;;;;;;;13.01;100.00;99801.50;5091021;28;20111;-48
2023/09/22 06:50:53;;;;;;;0.00;0.00;;;;;;;13.09;100.00;99796.63;5090455;28;20085;-45
2023/09/22 06:53:19;;;;;;;0.00;0.00;;;;;;;13.10;100.00;99809.06;5090634;28;20078;-46
2023/09/22 06:55:45;;;;;;;0.00;0.00;;;;;;;13.18;100.00;99813.34;5090772;28;20020;-46
2023/09/22 06:58:10;;;;;;;0.00;0.00;;;;;;;13.08;100.00;99818.44;5091288;28;20020;-46
2023/09/22 07:00:35;;;;;;;0.00;0.00;;;;;;;13.03;100.00;99813.69;5089332;28;20048;-46
2023/09/22 07:03:01;;;;;;;0.00;0.00;;;;;;;12.99;100.00;99822.50;5107177;28;20499;-45
2023/09/22 07:05:26;;;;;;;0.00;0.00;;;;;;;13.08;100.00;99823.84;5111024;28;20030;-45
2023/09/22 07:07:52;;;;;;;0.00;0.00;;;;;;;13.07;100.00;99831.13;5111109;28;20043;-44
2023/09/22 07:10:18;;;;;;;0.00;0.00;;;;;;;13.09;100.00;99825.50;5104838;28;20032;-48
2023/09/22 07:12:44;;;;;;;0.00;0.00;;;;;;;13.07;100.00;99828.44;5090499;28;20045;-42
2023/09/22 07:15:10;;;;;;;0.00;0.00;;;;;;;13.03;100.00;99831.78;5109727;28;20032;-46
2023/09/22 07:17:35;;;;;;;0.00;0.00;;;;;;;12.88;100.00;99840.25;5108620;28;20366;-46
2023/09/22 07:20:03;;;;;;;0.00;0.00;;;;;;;12.89;100.00;99842.72;5110845;28;20031;-45
2023/09/22 07:22:32;;;;;;;0.00;0.00;;;;;;;12.84;100.00;99852.53;5110965;28;20024;-45
2023/09/22 07:24:58;;;;;;;0.00;0.00;;;;;;;12.89;100.00;99858.91;5111173;28;20385;-44
2023/09/22 07:27:23;;;;;;;0.00;0.00;;;;;;;12.73;100.00;99859.47;5110911;28;20032;-42
2023/09/22 07:29:52;;;;;;;0.00;0.00;;;;;;;12.72;100.00;99871.34;5110750;28;20028;-44
2023/09/22 07:32:18;;;;;;;0.00;0.00;;;;;;;12.62;100.00;99871.00;5110916;28;20023;-43
2023/09/22 07:34:45;;;;;;;0.00;0.00;;;;;;;12.64;100.00;99880.53;5110815;28;20032;-45
2023/09/22 07:37:13;;;;;;;0.00;0.00;;;;;;;12.68;100.00;99886.31;5110377;28;20023;-44
2023/09/22 07:39:39;;;;;;;0.00;0.00;;;;;;;12.57;100.00;99900.50;5110471;28;20067;-44
2023/09/22 07:42:05;;;;;;;0.00;0.00;;;;;;;12.56;100.00;99907.78;5090376;28;20182;-44
2023/09/22 07:44:31;;;;;;;0.00;0.00;;;;;;;12.48;100.00;99898.06;5090137;28;20100;-44
2023/09/22 07:46:58;;;;;;;0.00;0.00;;;;;;;12.51;100.00;99904.91;5090441;28;20487;-42
2023/09/22 07:49:25;;;;;;;0.00;0.00;;;;;;;12.56;100.00;99913.19;5090600;28;20137;-41
2023/09/22 07:51:51;;;;;;;0.00;0.00;;;;;;;12.52;100.00;99920.06;5090315;28;20032;-44
2023/09/22 07:54:17;;;;;;;0.00;0.00;;;;;;;12.40;100.00;99913.69;5090243;28;20036;-44
2023/09/22 07:56:42;;;;;;;0.00;0.00;;;;;;;12.40;100.00;99922.63;5089928;28;20028;-42
2023/09/22 07:59:07;;;;;;;0.00;0.00;;;;;;;12.44;100.00;99925.72;5092496;28;20366;-43
2023/09/22 08:01:33;;;;;;;0.00;0.00;;;;;;;12.48;100.00;99935.00;5102988;28;20091;-44
2023/09/22 08:03:58;;;;;;;0.00;0.00;;;;;;;12.54;100.00;99944.13;5110261;28;20020;-43
2023/09/22 08:06:24;;;;;;;0.00;0.00;;;;;;;12.58;100.00;99934.53;5108622;28;20070;-43
2023/09/22 08:08:49;;;;;;;0.00;0.00;;;;;;;12.70;100.00;99936.34;5096054;28;20020;-41
2023/09/22 08:11:18;;;;;;;0.00;0.00;;;;;;;12.49;100.00;99939.38;5110758;28;20075;-43
2023/09/22 08:13:46;;;;;;;0.00;0.00;;;;;;;12.47;100.00;99942.28;5113785;28;20624;-43
2023/09/22 08:16:13;;;;;;;0.00;0.00;;;;;;;12.51;100.00;99951.63;5103929;28;20031;-45
2023/09/22 08:18:40;;;;;;;0.00;0.00;;;;;;;12.48;100.00;99965.56;5103683;28;20038;-47
2023/09/22 08:21:06;;;;;;;0.00;0.00;;;;;;;12.42;100.00;99966.38;5107068;28;20035;-44
2023/09/22 08:23:31;;;;;;;0.00;0.00;;;;;;;12.46;100.00;99967.63;5094800;28;20043;-46
2023/09/22 08:25:57;;;;;;;0.00;0.00;;;;;;;12.56;100.00;99960.91;5106127;28;20415;-43
2023/09/22 08:28:23;;;;;;;0.00;0.00;;;;;;;12.64;100.00;99952.59;5108321;28;20077;-44
2023/09/22 08:30:49;;;;;;;0.00;0.00;;;;;;;12.73;100.00;99956.66;5094023;28;20032;-43
2023/09/22 08:33:15;;;;;;;0.00;0.00;;;;;;;13.04;100.00;99969.34;5097592;28;20076;-43
2023/09/22 08:35:40;;;;;;;0.00;0.00;;;;;;;13.29;100.00;99969.34;5100048;27;20024;-43
2023/09/22 08:38:06;;;;;;;0.00;0.00;;;;;;;13.44;100.00;99963.63;5103108;28;20039;-42
2023/09/22 08:40:32;;;;;;;0.00;0.00;;;;;;;13.72;100.00;99948.81;5100104;27;20034;-43
2023/09/22 08:42:57;;;;;;;0.00;0.00;;;;;;;13.94;100.00;99946.47;5096483;28;20580;-44
2023/09/22 08:45:23;;;;;;;0.00;0.00;;;;;;;14.12;100.00;99932.94;5120081;27;20016;-45
2023/09/22 08:47:49;;;;;;;0.00;0.00;;;;;;;14.03;100.00;99928.88;5134225;27;20069;-44
2023/09/22 08:50:19;;;;;;;0.00;0.00;;;;;;;14.40;100.00;99923.38;5131356;27;20024;-42
2023/09/22 08:52:46;;;;;;;0.00;0.00;;;;;;;14.78;100.00;99925.78;5100971;28;20103;-43
2023/09/22 08:55:13;;;;;;;0.00;0.00;;;;;;;14.59;100.00;99922.34;5109388;27;20389;-46
2023/09/22 08:57:49;;;;;;;0.00;0.00;;;;;;;14.51;100.00;99944.28;5092586;28;20028;-43
2023/09/22 09:00:20;;;;;;;0.00;0.00;;;;;;;14.67;100.00;99945.56;5099648;28;20055;-45
2023/09/22 09:02:54;;;;;;;0.00;0.00;;;;;;;14.80;100.00;99949.94;5110233;27;20138;-44
2023/09/22 09:05:27;;;;;;;0.00;0.00;;;;;;;14.92;100.00;99946.19;5094636;27;20042;-49
2023/09/22 09:07:52;;;;;;;0.00;0.00;;;;;;;15.00;100.00;99955.88;5097387;28;20028;-43
2023/09/22 09:10:29;;;;;;;0.00;0.00;;;;;;;14.87;100.00;99951.47;5100159;28;20437;-41
2023/09/22 09:12:56;;;;;;;0.00;0.00;;;;;;;14.56;100.00;99966.13;5106621;27;20497;-46
2023/09/22 09:15:25;;;;;;;0.00;0.00;;;;;;;14.53;100.00;99965.72;5101076;27;20356;-46
2023/09/22 09:18:12;;;;;;;0.00;0.00;;;;;;;14.75;100.00;99952.53;5098750;28;20031;-42
2023/09/22 09:20:40;;;;;;;0.00;0.00;;;;;;;14.82;100.00;99945.09;5100529;28;20165;-45
2023/09/22 09:23:15;;;;;;;0.00;0.00;;;;;;;14.97;100.00;99944.69;5098845;28;20024;-47
2023/09/22 09:25:44;;;;;;;0.00;0.00;;;;;;;15.08;100.00;99952.81;5103127;28;20112;-43
2023/09/22 09:28:11;;;;;;;0.00;0.00;;;;;;;14.95;100.00;99963.84;5101497;28;20390;-44
2023/09/22 09:30:37;;;;;;;0.00;0.00;;;;;;;14.84;100.00;99970.09;5104856;28;20080;-45
2023/09/22 09:33:09;;;;;;;0.00;0.00;;;;;;;15.04;100.00;99970.63;5098339;27;20278;-45
2023/09/22 09:35:39;;;;;;;0.00;0.00;;;;;;;15.17;100.00;99966.06;5097399;28;20490;-45
2023/09/22 09:38:05;;;;;;;0.00;0.00;;;;;;;15.02;100.00;99974.63;5096513;28;20031;-43
2023/09/22 09:40:32;;;;;;;0.00;0.00;;;;;;;15.24;100.00;99972.16;5101496;28;20045;-45
2023/09/22 09:42:58;;;;;;;0.00;0.00;;;;;;;15.45;100.00;99962.63;5094738;27;20024;-41
2023/09/22 09:45:29;;;;;;;0.00;0.00;;;;;;;15.86;100.00;99958.16;5097315;28;20475;-43
2023/09/22 09:47:54;;;;;;;0.00;0.00;;;;;;;15.83;100.00;99953.22;5098183;28;20063;-45
2023/09/22 09:50:24;;;;;;;0.00;0.00;;;;;;;15.70;100.00;99965.16;5100889;28;20553;-44
2023/09/22 09:52:55;;;;;;;0.00;0.00;;;;;;;15.77;100.00;99972.09;5092882;28;20028;-42
2023/09/22 09:55:21;;;;;;;0.00;0.00;;;;;;;15.47;100.00;99976.78;5111330;28;20462;-44
2023/09/22 09:57:49;;;;;;;0.00;0.00;;;;;;;15.61;100.00;99975.47;5112800;28;20339;-42
2023/09/22 10:00:19;;;;;;;0.00;0.00;;;;;;;15.66;100.00;99982.91;5104993;28;20504;-43
2023/09/22 10:02:45;;;;;;;0.00;0.00;;;;;;;15.51;100.00;99977.97;5095256;27;20043;-45
2023/09/22 10:05:15;;;;;;;0.00;0.00;;;;;;;15.19;100.00;99985.59;5092304;28;20024;-46
2023/09/22 10:07:42;;;;;;;0.00;0.00;;;;;;;15.49;100.00;99986.34;5109451;27;20027;-47
2023/09/22 10:10:08;;;;;;;0.00;0.00;;;;;;;15.72;100.00;99990.16;5096392;27;20038;-44
2023/09/22 10:12:34;;;;;;;0.00;0.00;;;;;;;15.74;100.00;99998.88;5102931;28;20475;-44
2023/09/22 10:15:04;;;;;;;0.00;0.00;;;;;;;15.63;100.00;99977.97;5096057;28;20062;-45
2023/09/22 10:17:30;;;;;;;0.00;0.00;;;;;;;15.88;100.00;99972.34;5091118;28;20058;-43
2023/09/22 10:19:57;;;;;;;0.00;0.00;;;;;;;15.83;100.00;99981.19;5099215;27;20036;-42
2023/09/22 10:22:22;;;;;;;0.00;0.00;;;;;;;15.94;100.00;99983.03;5098731;28;20024;-43
2023/09/22 10:25:13;;;;;;;0.00;0.00;;;;;;;16.16;100.00;99975.09;5096508;27;20156;-43
2023/09/22 10:27:58;;;;;;;0.00;0.00;;;;;;;16.34;100.00;99986.84;5093259;28;20112;-44
2023/09/22 10:30:44;;;;;;;0.00;0.00;;;;;;;15.99;100.00;99968.75;5096611;28;20140;-44
2023/09/22 10:33:16;;;;;;;0.00;0.00;;;;;;;16.29;100.00;99974.00;5102641;28;20040;-44
2023/09/22 10:35:42;;;;;;;0.00;0.00;;;;;;;16.39;100.00;99974.19;5092945;28;20077;-43
2023/09/22 10:38:10;;;;;;;0.00;0.00;;;;;;;16.13;100.00;99974.75;5090953;28;20114;-44
2023/09/22 10:40:35;;;;;;;0.00;0.00;;;;;;;15.83;100.00;99983.06;5106410;28;20024;-43
2023/09/22 10:43:03;;;;;;;0.00;0.00;;;;;;;15.87;100.00;99982.34;5089349;27;20034;-43
2023/09/22 10:45:29;;;;;;;0.00;0.00;;;;;;;15.76;100.00;99984.00;5098171;28;20031;-41
2023/09/22 10:47:57;;;;;;;0.00;0.00;;;;;;;15.92;100.00;99990.59;5077605;27;20028;-42
2023/09/22 10:50:30;;;;;;;0.00;0.00;;;;;;;16.11;100.00;99977.69;5105911;27;20035;-44
2023/09/22 10:53:05;;;;;;;0.00;0.00;;;;;;;16.26;100.00;99979.91;5098934;28;20038;-45
2023/09/22 10:55:34;;;;;;;0.00;0.00;;;;;;;16.41;100.00;99995.69;5092995;28;20058;-46
2023/09/22 10:58:01;;;;;;;0.00;0.00;;;;;;;16.14;100.00;99981.81;5114107;27;20080;-47
2023/09/22 11:00:27;;;;;;;0.00;0.00;;;;;;;15.97;100.00;99987.16;5100601;27;20113;-46
2023/09/22 11:02:54;;;;;;;0.00;0.00;;;;;;;16.16;100.00;99980.50;5095039;28;20498;-43
2023/09/22 11:05:19;;;;;;;0.00;0.00;;;;;;;16.16;100.00;99985.13;5096896;27;20081;-41
2023/09/22 11:07:46;;;;;;;0.00;0.00;;;;;;;16.29;100.00;99989.47;5102691;28;20027;-44
2023/09/22 11:10:21;;;;;;;0.00;0.00;;;;;;;16.28;100.00;99980.50;5102608;27;20028;-44
2023/09/22 11:12:50;;;;;;;0.00;0.00;;;;;;;16.47;100.00;99989.28;5091989;28;20035;-45
2023/09/22 11:15:16;;;;;;;0.00;0.00;;;;;;;16.65;100.00;99982.84;5103671;27;20036;-45
2023/09/22 11:17:42;;;;;;;0.00;0.00;;;;;;;16.74;100.00;100003.09;5092090;28;20490;-46
2023/09/22 11:20:13;;;;;;;0.00;0.00;;;;;;;16.52;100.00;100002.97;5092676;28;20020;-45
2023/09/22 11:22:40;;;;;;;0.00;0.00;;;;;;;16.23;100.00;100007.53;5107365;28;20031;-45